createdAt,value
2019-04-14T00:00:15.998Z,0
2019-04-14T00:01:28.108Z,0
2019-04-14T00:02:40.386Z,0
2019-04-14T00:03:52.632Z,0
2019-04-14T00:05:04.787Z,0
2019-04-14T00:06:16.947Z,0
2019-04-14T00:07:29.059Z,0
2019-04-14T00:08:41.273Z,0
2019-04-14T00:09:53.506Z,0
2019-04-14T00:11:05.723Z,0
2019-04-14T00:12:17.953Z,0
2019-04-14T00:13:30.065Z,0
2019-04-14T00:15:54.520Z,0
2019-04-14T00:17:06.734Z,0
2019-04-14T00:18:18.804Z,0
2019-04-14T00:19:31.090Z,0
2019-04-14T00:20:43.188Z,0
2019-04-14T00:21:55.491Z,0
2019-04-14T00:23:07.666Z,0
2019-04-14T00:24:19.875Z,0
2019-04-14T00:25:32.064Z,0
2019-04-14T00:26:44.418Z,0
2019-04-14T00:27:56.490Z,0
2019-04-14T00:29:08.809Z,0
2019-04-14T00:30:20.773Z,0
2019-04-14T00:31:37.682Z,0
2019-04-14T00:32:45.137Z,0
2019-04-14T00:33:57.447Z,0
2019-04-14T00:35:09.528Z,0
2019-04-14T00:36:21.937Z,0
2019-04-14T00:37:33.971Z,0
2019-04-14T00:38:46.126Z,0
2019-04-14T00:39:58.412Z,0
2019-04-14T00:41:10.601Z,0
2019-04-14T00:42:22.695Z,0
2019-04-14T00:43:34.991Z,0
2019-04-14T00:44:47.115Z,0
2019-04-14T00:45:59.378Z,0
2019-04-14T00:47:11.470Z,0
2019-04-14T00:48:23.770Z,0
2019-04-14T00:49:35.915Z,0
2019-04-14T00:50:48.151Z,0
2019-04-14T00:52:00.363Z,0
2019-04-14T00:53:12.544Z,0
2019-04-14T00:54:24.632Z,0
2019-04-14T00:55:37.013Z,0
2019-04-14T00:56:49.113Z,0
2019-04-14T00:58:01.313Z,0
2019-04-14T00:59:13.410Z,0
2019-04-14T01:00:25.704Z,0
2019-04-14T01:01:37.886Z,0
2019-04-14T01:02:50.182Z,0
2019-04-14T01:04:02.286Z,0
2019-04-14T01:05:14.574Z,0
2019-04-14T01:06:26.596Z,0
2019-04-14T01:07:38.900Z,0
2019-04-14T01:08:51.071Z,0
2019-04-14T01:10:03.342Z,0
2019-04-14T01:11:15.383Z,0
2019-04-14T01:12:27.703Z,0
2019-04-14T01:13:39.763Z,0
2019-04-14T01:14:52.158Z,0
2019-04-14T01:16:04.268Z,0
2019-04-14T01:17:17.056Z,0
2019-04-14T01:18:28.600Z,0
2019-04-14T01:19:40.733Z,0
2019-04-14T01:20:52.963Z,0
2019-04-14T01:22:05.282Z,0
2019-04-14T01:23:17.278Z,0
2019-04-14T01:24:29.541Z,0
2019-04-14T01:25:41.686Z,0
2019-04-14T01:26:53.961Z,0
2019-04-14T01:28:06.256Z,0
2019-04-14T01:29:18.446Z,0
2019-04-14T01:30:30.460Z,0
2019-04-14T01:31:42.720Z,0
2019-04-14T01:32:54.839Z,0
2019-04-14T01:34:07.157Z,0
2019-04-14T01:35:19.224Z,0
2019-04-14T01:36:31.427Z,0
2019-04-14T01:37:43.620Z,0
2019-04-14T01:38:56.256Z,0
2019-04-14T01:40:08.112Z,0
2019-04-14T01:41:20.788Z,0
2019-04-14T01:42:36.561Z,0
2019-04-14T01:43:44.667Z,0
2019-04-14T01:44:56.841Z,0
2019-04-14T01:46:09.108Z,0
2019-04-14T01:47:21.380Z,0
2019-04-14T01:48:33.564Z,0
2019-04-14T01:49:45.581Z,0
2019-04-14T01:50:57.871Z,0
2019-04-14T01:52:10.084Z,0
2019-04-14T01:53:22.325Z,0
2019-04-14T01:54:34.358Z,0
2019-04-14T01:55:46.536Z,0
2019-04-14T01:56:58.725Z,0
2019-04-14T01:58:11.175Z,0
2019-04-14T01:59:23.106Z,0
2019-04-14T02:00:35.421Z,0
2019-04-14T02:01:47.518Z,0
2019-04-14T02:02:59.795Z,0
2019-04-14T02:04:12.004Z,0
2019-04-14T02:05:24.183Z,0
2019-04-14T02:06:36.445Z,0
2019-04-14T02:07:48.656Z,0
2019-04-14T02:09:00.663Z,0
2019-04-14T02:10:12.868Z,0
2019-04-14T02:11:25.161Z,0
2019-04-14T02:12:37.253Z,0
2019-04-14T02:13:49.445Z,0
2019-04-14T02:15:01.708Z,0
2019-04-14T02:16:13.941Z,0
2019-04-14T02:17:26.125Z,0
2019-04-14T02:18:38.453Z,0
2019-04-14T02:19:50.504Z,0
2019-04-14T02:21:02.622Z,0
2019-04-14T02:22:14.921Z,0
2019-04-14T02:23:27.009Z,0
2019-04-14T02:24:39.297Z,0
2019-04-14T02:25:51.447Z,0
2019-04-14T02:27:03.589Z,0
2019-04-14T02:28:15.882Z,0
2019-04-14T02:29:28.046Z,0
2019-04-14T02:30:40.189Z,0
2019-04-14T02:31:52.453Z,0
2019-04-14T02:33:04.575Z,0
2019-04-14T02:34:16.857Z,0
2019-04-14T02:35:28.936Z,0
2019-04-14T02:36:42.149Z,0
2019-04-14T02:37:53.365Z,0
2019-04-14T02:39:05.643Z,0
2019-04-14T02:40:17.853Z,0
2019-04-14T02:41:29.907Z,0
2019-04-14T02:42:42.139Z,0
2019-04-14T02:43:54.394Z,0
2019-04-14T02:45:06.558Z,0
2019-04-14T02:46:18.797Z,0
2019-04-14T02:47:31.007Z,0
2019-04-14T02:48:43.076Z,0
2019-04-14T02:49:55.392Z,0
2019-04-14T02:51:07.662Z,0
2019-04-14T02:52:19.773Z,0
2019-04-14T02:53:31.949Z,0
2019-04-14T02:54:44.086Z,0
2019-04-14T02:55:56.231Z,0
2019-04-14T02:57:08.541Z,0
2019-04-14T02:58:20.787Z,0
2019-04-14T02:59:32.943Z,0
2019-04-14T03:00:45.029Z,0
2019-04-14T03:01:57.289Z,0
2019-04-14T03:03:09.620Z,0
2019-04-14T03:04:21.792Z,0
2019-04-14T03:05:33.992Z,0
2019-04-14T03:06:46.217Z,0
2019-04-14T03:07:58.363Z,0
2019-04-14T03:09:10.567Z,0
2019-04-14T03:10:22.654Z,0
2019-04-14T03:11:34.917Z,0
2019-04-14T03:12:47.097Z,0
2019-04-14T03:13:59.145Z,0
2019-04-14T03:15:11.510Z,0
2019-04-14T03:16:23.750Z,0
2019-04-14T03:17:35.742Z,0
2019-04-14T03:18:47.954Z,0
2019-04-14T03:20:04.716Z,0
2019-04-14T03:21:12.314Z,0
2019-04-14T03:22:24.596Z,0
2019-04-14T03:23:36.687Z,0
2019-04-14T03:24:48.902Z,0
2019-04-14T03:26:01.102Z,0
2019-04-14T03:27:13.401Z,0
2019-04-14T03:28:25.622Z,0
2019-04-14T03:29:37.700Z,0
2019-04-14T03:30:49.909Z,0
2019-04-14T03:32:02.233Z,0
2019-04-14T03:33:14.265Z,0
2019-04-14T03:34:30.727Z,0
2019-04-14T03:35:43.272Z,0
2019-04-14T03:36:51.055Z,0
2019-04-14T03:38:03.067Z,0
2019-04-14T03:39:15.224Z,0
2019-04-14T03:40:27.534Z,0
2019-04-14T03:41:39.703Z,0
2019-04-14T03:42:51.805Z,0
2019-04-14T03:44:04.327Z,0
2019-04-14T03:45:16.198Z,0
2019-04-14T03:46:28.381Z,0
2019-04-14T03:47:40.614Z,0
2019-04-14T03:48:52.981Z,0
2019-04-14T03:50:04.972Z,0
2019-04-14T03:51:17.321Z,0
2019-04-14T03:52:29.498Z,0
2019-04-14T03:53:41.646Z,0
2019-04-14T03:54:53.837Z,0
2019-04-14T03:56:06.228Z,0
2019-04-14T03:57:18.156Z,0
2019-04-14T03:58:30.358Z,0
2019-04-14T03:59:42.657Z,0
2019-04-14T04:00:54.825Z,0
2019-04-14T04:02:06.998Z,0
2019-04-14T04:03:19.275Z,0
2019-04-14T04:04:31.395Z,0
2019-04-14T04:05:43.521Z,0
2019-04-14T04:06:55.683Z,0
2019-04-14T04:08:08.068Z,0
2019-04-14T04:09:20.078Z,0
2019-04-14T04:10:32.451Z,0
2019-04-14T04:11:45.294Z,0
2019-04-14T04:12:56.795Z,0
2019-04-14T04:14:08.856Z,0
2019-04-14T04:15:21.388Z,4
2019-04-14T04:16:33.346Z,4
2019-04-14T04:17:45.501Z,0
2019-04-14T04:18:57.652Z,4
2019-04-14T04:20:10.014Z,8
2019-04-14T04:21:22.216Z,4
2019-04-14T04:22:34.311Z,8
2019-04-14T04:23:47.628Z,8
2019-04-14T04:24:58.718Z,8
2019-04-14T04:26:10.825Z,8
2019-04-14T04:27:23.079Z,12
2019-04-14T04:28:35.386Z,12
2019-04-14T04:29:47.497Z,12
2019-04-14T04:30:59.584Z,16
2019-04-14T04:32:11.879Z,20
2019-04-14T04:33:24.128Z,24
2019-04-14T04:34:36.306Z,28
2019-04-14T04:35:48.383Z,32
2019-04-14T04:37:00.578Z,32
2019-04-14T04:38:12.879Z,36
2019-04-14T04:39:25.125Z,40
2019-04-14T04:40:37.309Z,44
2019-04-14T04:41:49.379Z,48
2019-04-14T04:43:01.601Z,44
2019-04-14T04:44:13.848Z,48
2019-04-14T04:45:25.935Z,44
2019-04-14T04:46:38.337Z,48
2019-04-14T04:47:50.374Z,60
2019-04-14T04:49:02.625Z,64
2019-04-14T04:50:14.831Z,64
2019-04-14T04:51:27.012Z,60
2019-04-14T04:52:39.253Z,64
2019-04-14T04:53:52.365Z,68
2019-04-14T04:55:03.557Z,68
2019-04-14T04:56:15.699Z,64
2019-04-14T04:57:27.900Z,68
2019-04-14T04:58:40.190Z,72
2019-04-14T04:59:52.346Z,80
2019-04-14T05:01:04.636Z,80
2019-04-14T05:02:16.690Z,84
2019-04-14T05:03:28.957Z,92
2019-04-14T05:04:41.166Z,100
2019-04-14T05:05:53.371Z,112
2019-04-14T05:08:17.730Z,124
2019-04-14T05:09:29.965Z,132
2019-04-14T05:10:42.134Z,144
2019-04-14T05:11:54.241Z,152
2019-04-14T05:13:06.472Z,164
2019-04-14T05:14:18.645Z,192
2019-04-14T05:15:30.965Z,216
2019-04-14T05:16:43.160Z,232
2019-04-14T05:17:55.322Z,240
2019-04-14T05:19:07.416Z,248
2019-04-14T05:20:19.714Z,260
2019-04-14T05:21:31.804Z,284
2019-04-14T05:22:44.105Z,316
2019-04-14T05:23:56.287Z,360
2019-04-14T05:25:08.384Z,396
2019-04-14T05:26:20.611Z,424
2019-04-14T05:27:32.878Z,444
2019-04-14T05:28:45.069Z,472
2019-04-14T05:29:57.280Z,524
2019-04-14T05:31:09.416Z,584
2019-04-14T05:32:21.936Z,652
2019-04-14T05:33:33.770Z,700
2019-04-14T05:34:45.950Z,740
2019-04-14T05:35:58.144Z,792
2019-04-14T05:37:10.413Z,856
2019-04-14T05:38:22.541Z,960
2019-04-14T05:39:35.117Z,1128
2019-04-14T05:40:47.120Z,1320
2019-04-14T05:41:59.131Z,1512
2019-04-14T05:43:11.404Z,1696
2019-04-14T05:44:23.694Z,1860
2019-04-14T05:45:35.710Z,1964
2019-04-14T05:46:48.087Z,2016
2019-04-14T05:48:00.168Z,2020
2019-04-14T05:49:12.515Z,2064
2019-04-14T05:50:24.657Z,2120
2019-04-14T05:51:36.886Z,2284
2019-04-14T05:52:48.998Z,2604
2019-04-14T05:54:01.175Z,2908
2019-04-14T05:55:13.311Z,3168
2019-04-14T05:56:25.468Z,3300
2019-04-14T05:57:37.747Z,3364
2019-04-14T05:58:49.997Z,3380
2019-04-14T06:00:02.085Z,3372
2019-04-14T06:01:14.375Z,3368
2019-04-14T06:02:26.573Z,3436
2019-04-14T06:03:38.667Z,3620
2019-04-14T06:04:51.609Z,3784
2019-04-14T06:06:04.264Z,3868
2019-04-14T06:07:15.294Z,3984
2019-04-14T06:08:27.518Z,4124
2019-04-14T06:09:39.663Z,4208
2019-04-14T06:10:51.954Z,4204
2019-04-14T06:12:04.100Z,4124
2019-04-14T06:13:19.256Z,4020
2019-04-14T06:14:28.500Z,3928
2019-04-14T06:15:40.728Z,3864
2019-04-14T06:16:52.882Z,3832
2019-04-14T06:18:05.083Z,3840
2019-04-14T06:19:17.235Z,3892
2019-04-14T06:20:29.480Z,4036
2019-04-14T06:21:41.667Z,4316
2019-04-14T06:22:53.875Z,4752
2019-04-14T06:24:05.961Z,5264
2019-04-14T06:25:19.812Z,5832
2019-04-14T06:26:30.366Z,6296
2019-04-14T06:27:42.651Z,6576
2019-04-14T06:28:54.857Z,6668
2019-04-14T06:30:07.130Z,6816
2019-04-14T06:31:19.244Z,7184
2019-04-14T06:32:31.327Z,7784
2019-04-14T06:33:43.613Z,8412
2019-04-14T06:34:55.916Z,8932
2019-04-14T06:36:07.946Z,9288
2019-04-14T06:37:20.345Z,9792
2019-04-14T06:38:32.313Z,9936
2019-04-14T06:39:44.495Z,10100
2019-04-14T06:40:56.792Z,10268
2019-04-14T06:42:08.958Z,10428
2019-04-14T06:43:21.120Z,10552
2019-04-14T06:44:33.451Z,10792
2019-04-14T06:45:45.479Z,10676
2019-04-14T06:46:57.776Z,10692
2019-04-14T06:48:09.862Z,10856
2019-04-14T06:49:22.248Z,10864
2019-04-14T06:50:34.260Z,11020
2019-04-14T06:51:49.726Z,10720
2019-04-14T06:52:58.752Z,10908
2019-04-14T06:54:10.950Z,11184
2019-04-14T06:55:23.109Z,10828
2019-04-14T06:56:35.366Z,10636
2019-04-14T06:57:47.511Z,10600
2019-04-14T06:58:59.731Z,10680
2019-04-14T07:00:11.840Z,10632
2019-04-14T07:01:24.112Z,10528
2019-04-14T07:02:37.340Z,10256
2019-04-14T07:03:48.515Z,10124
2019-04-14T07:05:00.747Z,10100
2019-04-14T07:06:12.901Z,10012
2019-04-14T07:07:25.010Z,10304
2019-04-14T07:08:37.374Z,10544
2019-04-14T07:09:49.384Z,10664
2019-04-14T07:11:01.674Z,10820
2019-04-14T07:12:13.808Z,11052
2019-04-14T07:13:26.125Z,11088
2019-04-14T07:14:38.240Z,10896
2019-04-14T07:15:50.474Z,10616
2019-04-14T07:17:02.730Z,10448
2019-04-14T07:18:14.942Z,10336
2019-04-14T07:19:26.954Z,10268
2019-04-14T07:20:39.365Z,10556
2019-04-14T07:21:51.434Z,10764
2019-04-14T07:23:03.647Z,10908
2019-04-14T07:24:15.798Z,10904
2019-04-14T07:25:28.048Z,10604
2019-04-14T07:26:40.192Z,10212
2019-04-14T07:27:52.512Z,9512
2019-04-14T07:29:04.633Z,8828
2019-04-14T07:30:16.844Z,8512
2019-04-14T07:31:28.989Z,8480
2019-04-14T07:32:41.206Z,8672
2019-04-14T07:33:53.345Z,9008
2019-04-14T07:35:05.962Z,9436
2019-04-14T07:36:19.191Z,9676
2019-04-14T07:37:29.966Z,9972
2019-04-14T07:38:42.089Z,10352
2019-04-14T07:39:54.370Z,10944
2019-04-14T07:41:06.668Z,11172
2019-04-14T07:42:18.759Z,11064
2019-04-14T07:43:30.935Z,10912
2019-04-14T07:44:43.215Z,10552
2019-04-14T07:45:55.267Z,9908
2019-04-14T07:47:07.536Z,9424
2019-04-14T07:48:19.669Z,9208
2019-04-14T07:49:31.941Z,9384
2019-04-14T07:50:44.038Z,9964
2019-04-14T07:51:56.476Z,10944
2019-04-14T07:53:08.666Z,11892
2019-04-14T07:54:20.777Z,12832
2019-04-14T07:55:32.811Z,13700
2019-04-14T07:56:45.254Z,14552
2019-04-14T07:57:57.291Z,15136
2019-04-14T07:59:09.487Z,16576
2019-04-14T08:00:21.613Z,17760
2019-04-14T08:01:33.886Z,19168
2019-04-14T08:02:46.423Z,20416
2019-04-14T08:03:58.265Z,21536
2019-04-14T08:05:10.466Z,22400
2019-04-14T08:06:22.653Z,22368
2019-04-14T08:07:34.755Z,21184
2019-04-14T08:08:47.219Z,20288
2019-04-14T08:09:59.160Z,19840
2019-04-14T08:11:11.438Z,19616
2019-04-14T08:12:23.590Z,19680
2019-04-14T08:13:35.825Z,20416
2019-04-14T08:14:47.936Z,21024
2019-04-14T08:16:00.221Z,21824
2019-04-14T08:17:12.563Z,22336
2019-04-14T08:18:24.644Z,22336
2019-04-14T08:19:36.719Z,22016
2019-04-14T08:20:49.003Z,20768
2019-04-14T08:22:02.592Z,21600
2019-04-14T08:23:15.322Z,18880
2019-04-14T08:24:25.500Z,16992
2019-04-14T08:25:37.784Z,15180
2019-04-14T08:26:50.060Z,14672
2019-04-14T08:28:02.173Z,14276
2019-04-14T08:29:14.386Z,14340
2019-04-14T08:30:26.636Z,14768
2019-04-14T08:31:38.703Z,15584
2019-04-14T08:32:51.014Z,17152
2019-04-14T08:34:03.053Z,18912
2019-04-14T08:35:15.355Z,22560
2019-04-14T08:36:27.651Z,23168
2019-04-14T08:37:39.735Z,26080
2019-04-14T08:38:51.834Z,26368
2019-04-14T08:40:04.034Z,37696
2019-04-14T08:41:16.444Z,34368
2019-04-14T08:42:28.426Z,28128
2019-04-14T08:43:40.700Z,29120
2019-04-14T08:44:52.916Z,40320
2019-04-14T08:46:05.564Z,46848
2019-04-14T08:47:17.294Z,40384
2019-04-14T08:48:29.406Z,44832
2019-04-14T08:49:41.699Z,46144
2019-04-14T08:50:53.885Z,45728
2019-04-14T08:52:07.631Z,45440
2019-04-14T08:53:18.450Z,48256
2019-04-14T08:54:30.770Z,49024
2019-04-14T08:55:42.578Z,47136
2019-04-14T08:56:54.770Z,42464
2019-04-14T08:58:06.972Z,39552
2019-04-14T08:59:19.249Z,39328
2019-04-14T09:00:31.451Z,42304
2019-04-14T09:01:43.646Z,47264
2019-04-14T09:02:55.787Z,44128
2019-04-14T09:04:08.054Z,44064
2019-04-14T09:05:20.463Z,48608
2019-04-14T09:06:32.433Z,45664
2019-04-14T09:07:44.631Z,49440
2019-04-14T09:08:56.828Z,49760
2019-04-14T09:10:08.939Z,47712
2019-04-14T09:11:21.250Z,52576
2019-04-14T09:12:33.304Z,53600
2019-04-14T09:13:45.602Z,52480
2019-04-14T09:14:57.723Z,55328
2019-04-14T09:16:10.077Z,52512
2019-04-14T09:17:22.183Z,48864
2019-04-14T09:18:34.281Z,50848
2019-04-14T09:19:46.514Z,50944
2019-04-14T09:20:58.779Z,51264
2019-04-14T09:22:10.870Z,47232
2019-04-14T09:23:23.063Z,46080
2019-04-14T09:24:35.356Z,47072
2019-04-14T09:25:47.581Z,48928
2019-04-14T09:26:59.671Z,50624
2019-04-14T09:28:12.048Z,51648
2019-04-14T09:29:24.134Z,53312
2019-04-14T09:30:36.405Z,55392
2019-04-14T09:31:48.435Z,54944
2019-04-14T09:33:00.740Z,59424
2019-04-14T09:34:12.867Z,58816
2019-04-14T09:35:25.200Z,56864
2019-04-14T09:36:37.261Z,58976
2019-04-14T09:37:49.520Z,56960
2019-04-14T09:39:01.643Z,56000
2019-04-14T09:40:13.905Z,56032
2019-04-14T09:41:26.118Z,50304
2019-04-14T09:42:38.264Z,37952
2019-04-14T09:43:50.493Z,31040
2019-04-14T09:45:02.684Z,37440
2019-04-14T09:46:14.794Z,60224
2019-04-14T09:47:26.993Z,61184
2019-04-14T09:48:39.199Z,62496
2019-04-14T09:49:51.544Z,65568
2019-04-14T09:51:03.632Z,24960
2019-04-14T09:52:15.865Z,58592
2019-04-14T09:53:28.049Z,64992
2019-04-14T09:54:40.158Z,67008
2019-04-14T09:55:52.355Z,66144
2019-04-14T09:57:04.730Z,62496
2019-04-14T09:58:16.763Z,57888
2019-04-14T09:59:28.921Z,61728
2019-04-14T10:00:41.155Z,67104
2019-04-14T10:01:53.671Z,70464
2019-04-14T10:03:05.526Z,70112
2019-04-14T10:04:17.765Z,70176
2019-04-14T10:05:30.077Z,66464
2019-04-14T10:06:42.236Z,66080
2019-04-14T10:07:54.389Z,68416
2019-04-14T10:09:06.639Z,70880
2019-04-14T10:10:18.699Z,71488
2019-04-14T10:11:30.985Z,73600
2019-04-14T10:12:43.078Z,72288
2019-04-14T10:13:55.439Z,72160
2019-04-14T10:15:07.520Z,70272
2019-04-14T10:16:19.732Z,65376
2019-04-14T10:17:34.004Z,65792
2019-04-14T10:18:49.572Z,67264
2019-04-14T10:19:56.256Z,67008
2019-04-14T10:21:08.649Z,68224
2019-04-14T10:22:20.642Z,70880
2019-04-14T10:23:32.945Z,71584
2019-04-14T10:24:45.041Z,62912
2019-04-14T10:25:57.350Z,33152
2019-04-14T10:27:09.448Z,67200
2019-04-14T10:28:21.841Z,75328
2019-04-14T10:29:33.989Z,75584
2019-04-14T10:30:46.133Z,73312
2019-04-14T10:31:58.214Z,73472
2019-04-14T10:33:10.539Z,73024
2019-04-14T10:34:22.615Z,72512
2019-04-14T10:35:34.866Z,76640
2019-04-14T10:36:47.040Z,75200
2019-04-14T10:37:59.297Z,74048
2019-04-14T10:39:11.380Z,68608
2019-04-14T10:40:23.666Z,67392
2019-04-14T10:41:35.882Z,70560
2019-04-14T10:42:48.137Z,71232
2019-04-14T10:44:00.186Z,72864
2019-04-14T10:45:12.371Z,69536
2019-04-14T10:46:24.546Z,71040
2019-04-14T10:47:36.846Z,71552
2019-04-14T10:48:48.942Z,73824
2019-04-14T10:50:01.253Z,73760
2019-04-14T10:51:13.336Z,74624
2019-04-14T10:52:25.701Z,71232
2019-04-14T10:53:37.884Z,63136
2019-04-14T10:54:50.123Z,66144
2019-04-14T10:56:02.127Z,34176
2019-04-14T10:57:14.418Z,41632
2019-04-14T10:58:26.540Z,23360
2019-04-14T10:59:38.779Z,17440
2019-04-14T11:00:50.942Z,17088
2019-04-14T11:02:03.206Z,16316
2019-04-14T11:03:15.301Z,20032
2019-04-14T11:04:27.575Z,68192
2019-04-14T11:05:39.848Z,26656
2019-04-14T11:06:52.287Z,23744
2019-04-14T11:08:04.074Z,23648
2019-04-14T11:09:16.350Z,21664
2019-04-14T11:10:28.455Z,67744
2019-04-14T11:11:40.826Z,25600
2019-04-14T11:12:52.884Z,24096
2019-04-14T11:14:05.461Z,19936
2019-04-14T11:15:17.267Z,64000
2019-04-14T11:16:29.540Z,67488
2019-04-14T11:17:41.762Z,68960
2019-04-14T11:18:53.917Z,58528
2019-04-14T11:20:06.112Z,69824
2019-04-14T11:21:18.317Z,72832
2019-04-14T11:22:30.415Z,68160
2019-04-14T11:23:42.694Z,50752
2019-04-14T11:24:54.870Z,68960
2019-04-14T11:26:07.152Z,69472
2019-04-14T11:27:19.343Z,70720
2019-04-14T11:28:31.483Z,69248
2019-04-14T11:29:43.673Z,64512
2019-04-14T11:30:55.870Z,18784
2019-04-14T11:32:08.026Z,20608
2019-04-14T11:33:20.334Z,52640
2019-04-14T11:34:32.384Z,51104
2019-04-14T11:35:44.555Z,23744
2019-04-14T11:36:56.817Z,21952
2019-04-14T11:38:09.350Z,21312
2019-04-14T11:39:21.141Z,18720
2019-04-14T11:40:33.448Z,19392
2019-04-14T11:41:45.646Z,18176
2019-04-14T11:42:57.740Z,16692
2019-04-14T11:44:10.025Z,17696
2019-04-14T11:45:22.334Z,16420
2019-04-14T11:46:34.397Z,17952
2019-04-14T11:47:46.704Z,18528
2019-04-14T11:48:58.720Z,19712
2019-04-14T11:50:10.995Z,19840
2019-04-14T11:51:23.102Z,17432
2019-04-14T11:52:35.527Z,18592
2019-04-14T11:53:47.588Z,19136
2019-04-14T11:54:59.773Z,18976
2019-04-14T11:56:12.119Z,18400
2019-04-14T11:57:24.155Z,17292
2019-04-14T11:58:36.406Z,16080
2019-04-14T11:59:48.616Z,15864
2019-04-14T12:01:00.650Z,14836
2019-04-14T12:02:12.942Z,14240
2019-04-14T12:03:25.132Z,15100
2019-04-14T12:04:37.426Z,16308
2019-04-14T12:05:49.544Z,17160
2019-04-14T12:07:03.778Z,17888
2019-04-14T12:08:13.834Z,18400
2019-04-14T12:09:26.225Z,18208
2019-04-14T12:10:38.419Z,18272
2019-04-14T12:11:50.547Z,18560
2019-04-14T12:13:02.609Z,18176
2019-04-14T12:14:15.304Z,17096
2019-04-14T12:15:27.079Z,16044
2019-04-14T12:17:51.655Z,13968
2019-04-14T12:19:03.694Z,14772
2019-04-14T12:20:15.777Z,15320
2019-04-14T12:21:28.059Z,15972
2019-04-14T12:22:40.395Z,16384
2019-04-14T12:23:52.533Z,16388
2019-04-14T12:25:04.551Z,14308
2019-04-14T12:26:16.756Z,12744
2019-04-14T12:27:29.063Z,12408
2019-04-14T12:28:41.397Z,11976
2019-04-14T12:29:53.442Z,12072
2019-04-14T12:31:05.713Z,11284
2019-04-14T12:32:20.054Z,11504
2019-04-14T12:33:30.020Z,12392
2019-04-14T12:34:42.137Z,12452
2019-04-14T12:35:54.399Z,12728
2019-04-14T12:37:08.453Z,13564
2019-04-14T12:38:18.821Z,13788
2019-04-14T12:39:30.897Z,13968
2019-04-14T12:40:43.101Z,13904
2019-04-14T12:41:55.420Z,13632
2019-04-14T12:43:07.561Z,12864
2019-04-14T12:44:19.667Z,12984
2019-04-14T12:45:33.976Z,13752
2019-04-14T12:46:44.119Z,14088
2019-04-14T12:47:56.441Z,14396
2019-04-14T12:49:08.515Z,14452
2019-04-14T12:50:20.749Z,14208
2019-04-14T12:51:32.841Z,13624
2019-04-14T12:52:45.203Z,11652
2019-04-14T12:53:57.410Z,10968
2019-04-14T12:55:09.607Z,10132
2019-04-14T12:56:21.693Z,10220
2019-04-14T12:57:34.045Z,10784
2019-04-14T12:58:49.213Z,11468
2019-04-14T12:59:58.340Z,12796
2019-04-14T13:01:10.398Z,13216
2019-04-14T13:02:24.138Z,12792
2019-04-14T13:03:36.557Z,11916
2019-04-14T13:04:47.167Z,10312
2019-04-14T13:05:59.344Z,9848
2019-04-14T13:07:11.521Z,9508
2019-04-14T13:08:23.738Z,9880
2019-04-14T13:09:35.874Z,10284
2019-04-14T13:10:47.959Z,10996
2019-04-14T13:12:00.246Z,11632
2019-04-14T13:13:12.382Z,11888
2019-04-14T13:14:24.649Z,11616
2019-04-14T13:15:36.752Z,11220
2019-04-14T13:16:49.029Z,10672
2019-04-14T13:18:01.226Z,10124
2019-04-14T13:19:13.412Z,10156
2019-04-14T13:20:25.629Z,9980
2019-04-14T13:21:37.859Z,9768
2019-04-14T13:22:50.059Z,9096
2019-04-14T13:24:02.108Z,8680
2019-04-14T13:25:14.316Z,8760
2019-04-14T13:26:26.619Z,8856
2019-04-14T13:27:38.690Z,8980
2019-04-14T13:28:51.008Z,9424
2019-04-14T13:31:15.397Z,9020
2019-04-14T13:32:27.471Z,8580
2019-04-14T13:33:39.821Z,8364
2019-04-14T13:34:51.934Z,8164
2019-04-14T13:36:04.160Z,7884
2019-04-14T13:37:16.251Z,8320
2019-04-14T13:38:28.539Z,8696
2019-04-14T13:39:40.655Z,9044
2019-04-14T13:40:53.006Z,9228
2019-04-14T13:42:05.309Z,9236
2019-04-14T13:43:19.182Z,8748
2019-04-14T13:44:29.409Z,8392
2019-04-14T13:45:41.693Z,8076
2019-04-14T13:46:54.005Z,7940
2019-04-14T13:48:06.076Z,8136
2019-04-14T13:49:18.280Z,8516
2019-04-14T13:50:30.594Z,9428
2019-04-14T13:51:42.576Z,10172
2019-04-14T13:52:54.860Z,9748
2019-04-14T13:54:07.124Z,9020
2019-04-14T13:55:19.240Z,8180
2019-04-14T13:56:33.962Z,7388
2019-04-14T13:57:43.741Z,6904
2019-04-14T13:58:55.876Z,7052
2019-04-14T14:00:07.959Z,7384
2019-04-14T14:01:20.179Z,7440
2019-04-14T14:02:32.411Z,8016
2019-04-14T14:03:44.587Z,8984
2019-04-14T14:04:56.808Z,9288
2019-04-14T14:06:09.017Z,9900
2019-04-14T14:07:21.190Z,9444
2019-04-14T14:08:33.279Z,8440
2019-04-14T14:09:49.251Z,7940
2019-04-14T14:10:57.893Z,8656
2019-04-14T14:12:10.044Z,9840
2019-04-14T14:13:22.166Z,10352
2019-04-14T14:14:34.348Z,10164
2019-04-14T14:15:46.499Z,10168
2019-04-14T14:16:58.726Z,9792
2019-04-14T14:18:11.011Z,9624
2019-04-14T14:19:23.127Z,9568
2019-04-14T14:20:35.310Z,9080
2019-04-14T14:21:47.492Z,8360
2019-04-14T14:22:59.775Z,7736
2019-04-14T14:24:11.929Z,7040
2019-04-14T14:25:24.051Z,6516
2019-04-14T14:26:36.338Z,5944
2019-04-14T14:27:48.499Z,6088
2019-04-14T14:29:00.738Z,6144
2019-04-14T14:30:12.875Z,5768
2019-04-14T14:31:25.063Z,5500
2019-04-14T14:32:37.253Z,5160
2019-04-14T14:33:49.460Z,4880
2019-04-14T14:35:01.567Z,4900
2019-04-14T14:36:13.848Z,4732
2019-04-14T14:37:26.092Z,4796
2019-04-14T14:38:38.237Z,4896
2019-04-14T14:39:50.374Z,5024
2019-04-14T14:41:02.625Z,5200
2019-04-14T14:42:14.807Z,5144
2019-04-14T14:43:27.012Z,5032
2019-04-14T14:44:39.109Z,4940
2019-04-14T14:45:51.469Z,4996
2019-04-14T14:47:03.607Z,5000
2019-04-14T14:48:15.779Z,5032
2019-04-14T14:49:27.927Z,5032
2019-04-14T14:50:40.203Z,5200
2019-04-14T14:51:52.283Z,5536
2019-04-14T14:53:04.612Z,5500
2019-04-14T14:54:16.780Z,5648
2019-04-14T14:55:32.432Z,5872
2019-04-14T14:56:41.212Z,6420
2019-04-14T14:57:53.334Z,7176
2019-04-14T14:59:05.449Z,7496
2019-04-14T15:00:17.717Z,7096
2019-04-14T15:01:29.822Z,6376
2019-04-14T15:02:42.312Z,5980
2019-04-14T15:03:54.317Z,5648
2019-04-14T15:05:06.541Z,5368
2019-04-14T15:06:18.678Z,4928
2019-04-14T15:07:31.026Z,4468
2019-04-14T15:08:43.052Z,4264
2019-04-14T15:09:55.272Z,4296
2019-04-14T15:11:07.456Z,4292
2019-04-14T15:12:19.650Z,4268
2019-04-14T15:13:31.745Z,4272
2019-04-14T15:14:44.046Z,4356
2019-04-14T15:15:56.160Z,4388
2019-04-14T15:17:08.460Z,4108
2019-04-14T15:18:20.680Z,3972
2019-04-14T15:19:32.829Z,3888
2019-04-14T15:20:45.101Z,3832
2019-04-14T15:21:57.197Z,3820
2019-04-14T15:23:09.298Z,3848
2019-04-14T15:24:21.612Z,3888
2019-04-14T15:25:33.689Z,3892
2019-04-14T15:26:46.062Z,3872
2019-04-14T15:27:58.091Z,3852
2019-04-14T15:29:10.403Z,3840
2019-04-14T15:30:22.567Z,3808
2019-04-14T15:31:34.760Z,3764
2019-04-14T15:32:47.077Z,3716
2019-04-14T15:33:59.047Z,3688
2019-04-14T15:35:11.362Z,3668
2019-04-14T15:36:23.546Z,3660
2019-04-14T15:37:35.639Z,3652
2019-04-14T15:38:48.065Z,3632
2019-04-14T15:40:00.009Z,3600
2019-04-14T15:41:12.204Z,3572
2019-04-14T15:42:24.506Z,3528
2019-04-14T15:43:37.248Z,3492
2019-04-14T15:44:48.842Z,3460
2019-04-14T15:46:01.113Z,3436
2019-04-14T15:47:13.289Z,3412
2019-04-14T15:48:25.386Z,3380
2019-04-14T15:49:37.644Z,3352
2019-04-14T15:50:49.872Z,3320
2019-04-14T15:52:01.970Z,3292
2019-04-14T15:53:14.240Z,3272
2019-04-14T15:54:26.511Z,3256
2019-04-14T15:55:38.779Z,3232
2019-04-14T15:56:50.750Z,3204
2019-04-14T15:58:03.191Z,3196
2019-04-14T15:59:15.230Z,3200
2019-04-14T16:00:27.465Z,3188
2019-04-14T16:01:39.671Z,3184
2019-04-14T16:02:52.048Z,3116
2019-04-14T16:04:04.041Z,3080
2019-04-14T16:05:16.175Z,3052
2019-04-14T16:06:28.508Z,3032
2019-04-14T16:07:40.654Z,3016
2019-04-14T16:08:52.750Z,2996
2019-04-14T16:10:04.970Z,2980
2019-04-14T16:11:17.052Z,2964
2019-04-14T16:12:29.357Z,2948
2019-04-14T16:13:41.490Z,2932
2019-04-14T16:14:53.736Z,2916
2019-04-14T16:16:05.825Z,2896
2019-04-14T16:17:18.134Z,2876
2019-04-14T16:18:30.397Z,2848
2019-04-14T16:19:42.556Z,2824
2019-04-14T16:20:54.593Z,2804
2019-04-14T16:22:07.006Z,2772